Time;durP1;ratioP1;P1;durP2;ratioP2;P2;SDS_P1;SDS_P2;PMS_P1;PMS_P2;Temp;Humidity;BMP_temperature;BMP_pressure;BME280_temperature;BME280_humidity;BME280_pressure;Samples;Min_cycle;Max_cycle;Signal;HPM_P1;HPM_P2
2022/03/23 00:02:18;;;;;;;36.65;16.10;;;;;;;2.48;59.54;101138.91;1674630;84;21063;-67
2022/03/23 00:04:47;;;;;;;38.85;15.40;;;;;;;2.50;59.52;101133.23;1682343;85;21041;-71
2022/03/23 00:07:14;;;;;;;42.58;15.28;;;;;;;2.48;59.41;101130.75;1656915;85;21020;-71
2022/03/23 00:09:42;;;;;;;32.67;15.53;;;;;;;2.48;59.54;101126.66;1619576;87;21075;-70
2022/03/23 00:12:11;;;;;;;40.52;15.13;;;;;;;2.47;59.67;101126.89;1615213;88;21548;-71
2022/03/23 00:14:38;;;;;;;31.48;14.23;;;;;;;2.43;59.71;101123.27;1666734;85;20979;-71
2022/03/23 00:17:07;;;;;;;31.82;15.68;;;;;;;2.43;59.84;101124.63;1655434;85;22207;-71
2022/03/23 00:19:38;;;;;;;31.37;14.20;;;;;;;2.42;59.93;101124.30;1664024;85;21730;-70
2022/03/23 00:22:06;;;;;;;33.10;14.63;;;;;;;2.43;60.03;101121.06;1665235;85;21569;-70
2022/03/23 00:24:33;;;;;;;30.40;14.00;;;;;;;2.42;59.98;101116.14;1665299;85;20969;-68
2022/03/23 00:27:00;;;;;;;31.90;13.35;;;;;;;2.42;59.93;101114.78;1666478;85;21512;-68
2022/03/23 00:29:28;;;;;;;35.90;14.78;;;;;;;2.42;60.04;101112.06;1656499;85;21008;-68
2022/03/23 00:31:57;;;;;;;33.90;14.75;;;;;;;2.43;60.16;101115.11;1672234;85;21308;-72
2022/03/23 00:34:24;;;;;;;31.77;12.82;;;;;;;2.45;60.34;101107.23;1669880;85;20996;-71
2022/03/23 00:36:51;;;;;;;27.42;12.50;;;;;;;2.45;60.39;101109.95;1669428;85;21085;-70
2022/03/23 00:39:20;;;;;;;30.97;12.05;;;;;;;2.46;60.37;101100.75;1681862;85;21567;-69
2022/03/23 00:41:49;;;;;;;28.80;12.00;;;;;;;2.45;60.52;101097.19;1669989;85;21489;-70
2022/03/23 00:44:18;;;;;;;29.95;12.15;;;;;;;2.46;60.60;101092.04;1658122;85;21576;-69
2022/03/23 00:46:48;;;;;;;20.82;11.03;;;;;;;2.46;60.55;101100.20;1661155;85;21539;-72
2022/03/23 00:49:15;;;;;;;27.17;12.10;;;;;;;2.46;60.56;101092.59;1638313;86;21056;-71
2022/03/23 00:51:42;;;;;;;30.68;11.73;;;;;;;2.45;60.55;101090.38;1651533;85;20985;-70
2022/03/23 00:54:12;;;;;;;28.95;12.53;;;;;;;2.43;60.49;101090.61;1625541;88;21121;-69
2022/03/23 00:56:40;;;;;;;27.50;10.78;;;;;;;2.41;60.45;101085.92;1612030;88;21430;-71
2022/03/23 00:59:08;;;;;;;28.00;11.35;;;;;;;2.39;60.63;101077.15;1611139;88;20975;-69
2022/03/23 01:01:35;;;;;;;29.12;11.30;;;;;;;2.41;60.78;101083.72;1658333;85;21004;-69
2022/03/23 01:04:04;;;;;;;26.12;11.25;;;;;;;2.40;60.94;101076.63;1655080;85;21497;-69
2022/03/23 01:06:31;;;;;;;22.87;11.80;;;;;;;2.40;61.01;101076.63;1664391;85;21225;-71
2022/03/23 01:08:58;;;;;;;31.50;11.73;;;;;;;2.39;60.90;101073.06;1660481;85;21958;-70
2022/03/23 01:11:26;;;;;;;25.95;11.18;;;;;;;2.38;60.85;101072.77;1657763;85;21065;-71
2022/03/23 01:13:54;;;;;;;30.37;10.65;;;;;;;2.37;60.91;101069.73;1644854;86;21509;-71
2022/03/23 01:16:22;;;;;;;26.02;11.35;;;;;;;2.36;60.93;101066.72;1637251;86;21024;-70
2022/03/23 01:18:49;;;;;;;24.80;10.38;;;;;;;2.35;60.95;101073.23;1637569;86;20981;-70
2022/03/23 01:21:19;;;;;;;26.57;10.48;;;;;;;2.33;60.94;101064.46;1639895;86;21160;-69
2022/03/23 01:23:50;;;;;;;31.48;12.65;;;;;;;2.31;60.93;101065.20;1643354;86;20973;-69
2022/03/23 01:26:19;;;;;;;30.35;11.53;;;;;;;2.30;60.97;101058.12;1642990;86;20989;-70
2022/03/23 01:28:56;;;;;;;28.40;11.43;;;;;;;2.27;60.86;101058.03;1644700;85;21025;-68
2022/03/23 01:31:23;;;;;;;34.80;12.15;;;;;;;2.27;60.84;101051.77;1640150;86;21112;-70
2022/03/23 01:33:50;;;;;;;35.15;12.93;;;;;;;2.26;60.74;101053.66;1636595;86;21857;-69
2022/03/23 01:36:20;;;;;;;25.20;10.25;;;;;;;2.25;60.69;101045.17;1651678;86;20968;-69
2022/03/23 01:38:48;;;;;;;26.82;10.25;;;;;;;2.25;60.65;101053.34;1660988;85;20950;-68
2022/03/23 01:41:15;;;;;;;25.62;10.60;;;;;;;2.24;60.67;101045.41;1659165;85;20985;-69
2022/03/23 01:43:42;;;;;;;30.62;11.55;;;;;;;2.21;60.67;101037.18;1642648;86;21560;-70
2022/03/23 01:46:10;;;;;;;25.55;10.60;;;;;;;2.21;60.62;101043.14;1665308;85;21852;-72
2022/03/23 01:48:41;;;;;;;25.97;11.50;;;;;;;2.18;60.65;101041.72;1645154;86;21411;-70
2022/03/23 01:51:08;;;;;;;27.45;11.97;;;;;;;2.15;60.69;101039.45;1666163;85;20977;-69
2022/03/23 01:53:38;;;;;;;26.23;11.95;;;;;;;2.12;60.72;101040.72;1663311;85;21120;-69
2022/03/23 01:56:07;;;;;;;21.50;10.18;;;;;;;2.09;60.78;101032.18;1658218;85;21119;-69
2022/03/23 01:58:37;;;;;;;25.45;11.63;;;;;;;2.04;60.83;101028.27;1644788;86;20977;-68
2022/03/23 02:01:07;;;;;;;32.28;11.68;;;;;;;2.00;60.85;101031.64;1662619;85;20981;-69
2022/03/23 02:03:36;;;;;;;25.37;11.35;;;;;;;1.94;61.13;101021.97;1631104;86;21509;-71
2022/03/23 02:06:04;;;;;;;30.12;12.03;;;;;;;1.91;61.29;101026.50;1659185;85;21059;-69
2022/03/23 02:08:32;;;;;;;27.20;10.82;;;;;;;1.90;61.46;101022.12;1664017;85;21088;-69
2022/03/23 02:11:00;;;;;;;25.45;10.90;;;;;;;1.89;61.57;101017.77;1667839;85;21137;-72
2022/03/23 02:13:28;;;;;;;34.48;10.60;;;;;;;1.90;61.57;101022.65;1663713;85;21463;-71
2022/03/23 02:15:58;;;;;;;23.57;10.85;;;;;;;1.89;61.63;101015.05;1629325;86;21082;-71
2022/03/23 02:18:27;;;;;;;29.40;10.78;;;;;;;1.90;61.59;101019.41;1643879;84;21191;-68
2022/03/23 02:20:55;;;;;;;34.13;11.90;;;;;;;1.89;61.62;101019.13;1684095;84;21024;-72
2022/03/23 02:23:21;;;;;;;27.55;10.93;;;;;;;1.88;61.60;101017.95;1658018;85;22056;-69
2022/03/23 02:25:49;;;;;;;33.05;12.68;;;;;;;1.88;61.55;101013.88;1666177;85;20977;-69
2022/03/23 02:28:16;;;;;;;34.50;11.97;;;;;;;1.87;61.58;101008.15;1618641;87;21466;-71
2022/03/23 02:30:44;;;;;;;33.58;12.03;;;;;;;1.88;61.59;101003.84;1620123;87;21584;-68
2022/03/23 02:33:16;;;;;;;27.40;11.53;;;;;;;1.90;61.60;101014.49;1621557;87;21085;-69
2022/03/23 02:35:43;;;;;;;30.48;12.18;;;;;;;1.90;61.71;101012.61;1617367;87;21788;-69
2022/03/23 02:38:10;;;;;;;34.53;13.53;;;;;;;1.90;61.69;101013.13;1664102;85;20958;-69
2022/03/23 02:40:38;;;;;;;35.65;14.38;;;;;;;1.90;61.59;101012.61;1660941;85;21071;-71
2022/03/23 02:43:07;;;;;;;34.60;13.88;;;;;;;1.90;61.53;101016.69;1660812;85;21090;-69
2022/03/23 02:45:35;;;;;;;33.30;12.75;;;;;;;1.89;61.37;101013.68;1666734;85;21060;-71
2022/03/23 02:48:07;;;;;;;27.45;11.38;;;;;;;1.88;61.32;101003.00;1652548;86;21851;-69
2022/03/23 02:50:34;;;;;;;26.27;12.07;;;;;;;1.84;61.37;101001.30;1652222;86;21055;-69
2022/03/23 03:01:54;;;;;;;27.67;12.00;;;;;;;1.53;62.59;100993.02;1662886;85;21197;-70
2022/03/23 03:04:21;;;;;;;35.80;12.63;;;;;;;1.49;62.68;100996.37;1662052;85;21132;-71
2022/03/23 03:06:48;;;;;;;39.33;13.45;;;;;;;1.46;62.74;100992.23;1664960;85;20921;-71
2022/03/23 03:09:17;;;;;;;35.98;12.47;;;;;;;1.41;62.87;100994.27;1644828;86;20921;-72
2022/03/23 03:11:44;;;;;;;27.27;12.55;;;;;;;1.37;62.86;100991.67;1661497;85;21072;-71
2022/03/23 03:14:14;;;;;;;29.72;13.08;;;;;;;1.37;62.84;100985.41;1663715;85;21163;-68
2022/03/23 03:16:41;;;;;;;31.85;13.10;;;;;;;1.34;62.77;100986.70;1664021;85;21119;-69
2022/03/23 03:19:10;;;;;;;33.70;12.68;;;;;;;1.33;62.77;100993.19;1658090;85;21003;-70
2022/03/23 03:21:40;;;;;;;27.80;12.68;;;;;;;1.29;62.97;100991.95;1599838;87;21648;-70
2022/03/23 03:24:12;;;;;;;29.40;12.18;;;;;;;1.25;63.05;100988.85;1624903;87;20968;-70
2022/03/23 03:26:41;;;;;;;28.92;12.00;;;;;;;1.25;62.98;100984.77;1660435;85;21161;-71
2022/03/23 03:29:10;;;;;;;32.03;11.95;;;;;;;1.25;63.21;100990.73;1657707;85;21038;-69
2022/03/23 03:31:39;;;;;;;25.85;12.60;;;;;;;1.24;63.43;100985.00;1660334;85;20949;-71
2022/03/23 03:34:06;;;;;;;34.20;13.10;;;;;;;1.21;63.38;100979.50;1654278;85;20980;-71
2022/03/23 03:36:34;;;;;;;32.65;12.98;;;;;;;1.16;63.31;100982.86;1661871;85;21111;-70
2022/03/23 03:39:02;;;;;;;32.00;12.88;;;;;;;1.11;63.48;100975.90;1666604;85;21122;-67
2022/03/23 03:41:31;;;;;;;27.67;12.30;;;;;;;1.09;63.54;100976.67;1671414;84;21087;-69
2022/03/23 03:43:59;;;;;;;29.92;12.25;;;;;;;1.07;63.59;100978.77;1669803;85;21493;-71
2022/03/23 03:46:27;;;;;;;34.67;12.20;;;;;;;1.03;63.44;100978.37;1685427;84;21017;-70
2022/03/23 03:48:57;;;;;;;33.83;13.58;;;;;;;1.02;63.56;100985.38;1674048;85;20995;-68
2022/03/23 03:51:26;;;;;;;32.38;12.90;;;;;;;1.00;63.55;100980.17;1677892;85;21238;-71
2022/03/23 03:53:53;;;;;;;28.55;11.95;;;;;;;1.00;63.59;100984.77;1667806;85;21540;-71
2022/03/23 03:56:20;;;;;;;34.70;13.78;;;;;;;0.97;63.85;100983.33;1670505;85;21523;-68
2022/03/23 03:58:50;;;;;;;30.82;13.00;;;;;;;0.96;64.13;100979.78;1673362;85;20980;-71
2022/03/23 04:01:18;;;;;;;34.70;13.25;;;;;;;0.97;64.32;100973.83;1671043;84;22029;-70
2022/03/23 04:03:45;;;;;;;30.68;13.50;;;;;;;0.93;64.27;100979.37;1673082;84;22007;-70
2022/03/23 04:06:14;;;;;;;28.55;13.00;;;;;;;0.91;64.31;100980.12;1677128;84;21011;-70
2022/03/23 04:08:46;;;;;;;22.27;11.57;;;;;;;0.89;64.35;100973.55;1641690;84;21594;-69
2022/03/23 04:11:15;;;;;;;35.88;14.05;;;;;;;0.89;64.22;100978.17;1673514;84;21025;-71
2022/03/23 04:13:41;;;;;;;27.58;12.33;;;;;;;0.88;64.23;100970.55;1674987;84;21096;-70
2022/03/23 04:16:09;;;;;;;31.30;13.03;;;;;;;0.88;64.28;100972.42;1675733;84;21252;-68
2022/03/23 04:18:37;;;;;;;28.90;13.03;;;;;;;0.87;64.24;100968.86;1670899;84;21242;-70
2022/03/23 04:21:05;;;;;;;33.42;13.00;;;;;;;0.85;64.41;100971.80;1668599;84;21068;-69
2022/03/23 04:23:35;;;;;;;34.75;13.55;;;;;;;0.86;64.76;100968.56;1657899;85;21655;-68
2022/03/23 04:26:02;;;;;;;40.60;13.85;;;;;;;0.85;64.69;100963.66;1673060;84;21229;-69
2022/03/23 04:28:31;;;;;;;33.25;13.58;;;;;;;0.85;64.75;100966.38;1665322;84;21548;-70
2022/03/23 04:31:01;;;;;;;30.55;13.50;;;;;;;0.84;65.00;100965.23;1667200;84;21083;-67
2022/03/23 04:33:28;;;;;;;28.57;13.30;;;;;;;0.83;65.36;100962.23;1659745;85;21064;-70
2022/03/23 04:35:56;;;;;;;37.88;14.60;;;;;;;0.77;65.44;100961.21;1667089;84;21012;-70
2022/03/23 04:38:23;;;;;;;27.07;12.90;;;;;;;0.76;65.72;100960.92;1669692;84;21001;-70
2022/03/23 04:40:54;;;;;;;36.65;14.50;;;;;;;0.79;65.92;100969.97;1664540;85;21222;-71
2022/03/23 04:43:21;;;;;;;37.67;14.28;;;;;;;0.82;66.01;100970.89;1676147;84;21068;-69
2022/03/23 04:45:48;;;;;;;32.05;14.15;;;;;;;0.89;65.92;100977.62;1664381;84;21109;-69
2022/03/23 04:48:17;;;;;;;26.50;14.13;;;;;;;0.94;66.03;100972.37;1676222;84;21500;-71
2022/03/23 04:50:47;;;;;;;37.90;14.58;;;;;;;0.98;66.12;100967.34;1670936;84;21042;-71
2022/03/23 04:53:16;;;;;;;33.38;15.13;;;;;;;1.06;65.98;100966.22;1674159;84;21155;-69
2022/03/23 04:55:45;;;;;;;33.85;15.45;;;;;;;1.14;65.86;100970.05;1674756;84;21452;-69
2022/03/23 04:58:14;;;;;;;35.45;13.55;;;;;;;1.24;65.76;100972.78;1648945;85;21008;-70
2022/03/23 05:00:41;;;;;;;38.63;15.10;;;;;;;1.31;65.70;100966.22;1676562;84;21091;-71
2022/03/23 05:03:10;;;;;;;38.83;16.82;;;;;;;1.41;65.71;100972.53;1673724;84;21699;-68
2022/03/23 05:05:40;;;;;;;42.70;16.37;;;;;;;1.47;65.52;100971.34;1661573;85;21058;-70
2022/03/23 05:08:09;;;;;;;41.15;17.07;;;;;;;1.55;65.33;100973.77;1669745;84;21560;-69
2022/03/23 05:10:37;;;;;;;60.65;22.93;;;;;;;1.65;65.29;100970.53;1670659;85;21001;-68
2022/03/23 05:13:06;;;;;;;60.80;25.77;;;;;;;1.76;65.45;100973.02;1672163;85;21440;-69
2022/03/23 05:15:34;;;;;;;64.30;29.25;;;;;;;1.86;65.45;100966.53;1673565;84;21030;-70
2022/03/23 05:18:03;;;;;;;67.35;31.02;;;;;;;1.96;65.38;100966.55;1681757;84;21805;-68
2022/03/23 05:20:30;;;;;;;59.65;28.90;;;;;;;2.07;65.28;100968.50;1657339;85;21438;-71
2022/03/23 05:23:02;;;;;;;70.83;29.10;;;;;;;2.18;65.15;100965.01;1666948;85;21179;-70
2022/03/23 05:25:33;;;;;;;62.80;30.20;;;;;;;2.29;64.92;100967.50;1664772;85;21073;-67
2022/03/23 05:28:03;;;;;;;73.37;31.50;;;;;;;2.39;64.59;100971.03;1614983;87;21494;-71
2022/03/23 05:30:32;;;;;;;70.30;29.48;;;;;;;2.50;64.44;100961.27;1593196;88;21170;-69
2022/03/23 05:33:00;;;;;;;61.98;29.10;;;;;;;2.63;64.53;100959.41;1618554;87;20988;-69
2022/03/23 05:35:26;;;;;;;73.78;33.20;;;;;;;2.76;64.50;100967.38;1660174;85;21505;-68
2022/03/23 05:37:56;;;;;;;66.28;32.13;;;;;;;2.90;64.29;100965.84;1665017;85;20997;-71
2022/03/23 05:40:23;;;;;;;65.90;31.37;;;;;;;3.04;63.65;100961.84;1656838;85;21099;-71
2022/03/23 05:42:52;;;;;;;64.40;30.82;;;;;;;3.19;63.22;100968.72;1659860;85;21058;-68
2022/03/23 05:45:18;;;;;;;70.78;33.55;;;;;;;3.33;62.62;100965.77;1659076;85;21036;-69
2022/03/23 05:47:52;;;;;;;69.50;34.10;;;;;;;3.45;61.70;100966.61;1650442;86;21001;-67
2022/03/23 05:50:20;;;;;;;62.10;32.48;;;;;;;3.60;61.05;100962.59;1653640;85;21004;-70
2022/03/23 05:52:48;;;;;;;74.40;36.25;;;;;;;3.72;60.52;100966.68;1665227;85;21001;-67
2022/03/23 05:55:18;;;;;;;84.52;38.28;;;;;;;3.80;59.42;100958.13;1661857;85;21819;-71
2022/03/23 05:57:50;;;;;;;83.35;38.42;;;;;;;3.92;59.01;100958.11;1659530;85;21526;-70
2022/03/23 06:00:32;;;;;;;82.37;39.98;;;;;;;4.04;58.29;100959.45;1656199;85;21309;-69
2022/03/23 06:02:59;;;;;;;81.22;39.20;;;;;;;4.17;57.80;100955.62;1663044;85;20992;-70
2022/03/23 06:05:27;;;;;;;78.92;39.23;;;;;;;4.29;57.43;100950.13;1661089;85;21473;-69
2022/03/23 06:07:54;;;;;;;83.10;38.67;;;;;;;4.40;56.85;100948.96;1662991;85;21147;-70
2022/03/23 06:10:23;;;;;;;91.22;43.95;;;;;;;4.52;56.46;100948.91;1663397;85;20946;-69
2022/03/23 06:12:51;;;;;;;89.70;41.55;;;;;;;4.62;56.07;100940.36;1664297;85;21068;-68
2022/03/23 06:15:18;;;;;;;74.60;39.05;;;;;;;4.74;55.59;100943.59;1660822;85;21593;-70
2022/03/23 06:17:53;;;;;;;83.07;42.10;;;;;;;4.83;55.33;100944.83;1657016;85;21016;-72
2022/03/23 06:20:21;;;;;;;91.22;43.00;;;;;;;4.93;55.12;100940.62;1663455;85;21157;-72
2022/03/23 06:22:51;;;;;;;89.67;43.48;;;;;;;5.03;54.75;100946.27;1661978;85;20870;-69
2022/03/23 06:25:19;;;;;;;88.80;43.23;;;;;;;5.13;54.66;100937.94;1666685;85;21044;-68
2022/03/23 06:27:47;;;;;;;87.50;43.70;;;;;;;5.25;54.48;100941.41;1657991;85;21225;-72
2022/03/23 06:30:14;;;;;;;94.60;49.27;;;;;;;5.36;54.29;100940.48;1664008;85;21104;-69
2022/03/23 06:32:41;;;;;;;103.85;53.05;;;;;;;5.50;53.84;100940.14;1658424;85;21142;-70
2022/03/23 06:35:14;;;;;;;100.10;53.38;;;;;;;5.62;53.38;100940.03;1667230;85;21536;-69
2022/03/23 06:37:42;;;;;;;99.58;51.98;;;;;;;5.75;53.06;100937.47;1666433;85;21655;-68
2022/03/23 06:40:11;;;;;;;96.63;51.92;;;;;;;5.88;52.79;100940.39;1665433;85;20966;-68
2022/03/23 06:42:42;;;;;;;100.62;54.63;;;;;;;6.01;52.34;100935.60;1654821;85;20900;-72
2022/03/23 06:45:09;;;;;;;105.17;54.15;;;;;;;6.10;52.34;100932.75;1659577;85;21412;-69
2022/03/23 06:47:39;;;;;;;107.87;58.55;;;;;;;6.23;52.13;100931.52;1658201;85;20870;-71
2022/03/23 06:50:17;;;;;;;126.20;66.45;;;;;;;6.36;51.97;100930.31;1662630;85;20981;-71
2022/03/23 06:52:45;;;;;;;110.30;61.40;;;;;;;6.50;51.82;100927.97;1659771;85;21084;-71
2022/03/23 06:55:14;;;;;;;113.45;63.95;;;;;;;6.64;51.39;100925.66;1652200;85;21508;-72
2022/03/23 06:57:44;;;;;;;123.13;68.05;;;;;;;6.78;50.91;100926.06;1662017;85;21094;-68
2022/03/23 07:00:14;;;;;;;128.02;70.32;;;;;;;6.88;50.22;100922.59;1666360;85;21545;-69
2022/03/23 07:02:47;;;;;;;120.97;67.10;;;;;;;6.99;50.24;100928.16;1655008;85;20961;-68
2022/03/23 07:05:17;;;;;;;129.45;69.17;;;;;;;7.13;50.23;100927.18;1664942;85;20996;-68
2022/03/23 07:10:34;;;;;;;143.68;74.92;;;;;;;7.38;49.45;100924.33;1659808;85;21097;-70
2022/03/23 07:13:03;;;;;;;124.10;67.15;;;;;;;7.52;49.25;100926.07;1655423;85;20984;-70
2022/03/23 07:15:30;;;;;;;130.30;70.78;;;;;;;7.65;48.91;100928.87;1648962;85;21044;-69
2022/03/23 07:17:57;;;;;;;131.95;66.57;;;;;;;7.76;48.34;100922.34;1657679;85;21418;-72
2022/03/23 07:20:27;;;;;;;121.42;66.12;;;;;;;7.88;48.35;100922.69;1665440;85;20989;-72
2022/03/23 07:22:56;;;;;;;123.30;70.87;;;;;;;7.99;48.31;100918.89;1666824;85;21584;-67
2022/03/23 07:25:25;;;;;;;138.43;73.15;;;;;;;8.13;48.14;100919.77;1651578;85;21076;-71
2022/03/23 07:27:52;;;;;;;127.40;72.95;;;;;;;8.27;47.99;100918.14;1636809;86;21091;-70
2022/03/23 07:30:20;;;;;;;145.02;77.75;;;;;;;8.40;47.71;100913.24;1645360;86;21577;-68
2022/03/23 07:32:48;;;;;;;130.72;74.10;;;;;;;8.52;47.31;100919.33;1662479;85;20953;-69
2022/03/23 07:35:15;;;;;;;160.70;87.02;;;;;;;8.66;46.68;100913.87;1660469;85;21163;-68
2022/03/23 07:37:42;;;;;;;153.10;83.17;;;;;;;8.76;46.60;100914.72;1653734;85;21099;-71
2022/03/23 07:40:18;;;;;;;165.43;90.95;;;;;;;8.91;46.25;100909.47;1657472;85;21079;-70
2022/03/23 07:42:46;;;;;;;164.95;90.60;;;;;;;9.05;45.92;100920.22;1650605;85;20999;-69
2022/03/23 07:45:16;;;;;;;171.57;94.58;;;;;;;9.19;45.47;100913.61;1663519;85;21043;-70
2022/03/23 07:47:43;;;;;;;170.38;96.37;;;;;;;9.35;45.24;100913.56;1654244;85;21305;-71
2022/03/23 07:50:11;;;;;;;164.15;93.07;;;;;;;9.49;45.03;100912.45;1653028;85;20935;-68
2022/03/23 07:52:38;;;;;;;177.80;101.65;;;;;;;9.61;44.64;100912.97;1662245;85;20923;-68
2022/03/23 07:55:05;;;;;;;172.47;102.50;;;;;;;9.75;44.54;100911.00;1662718;85;21492;-71
2022/03/23 07:57:33;;;;;;;189.60;109.90;;;;;;;9.89;43.99;100907.11;1665033;85;20889;-70
2022/03/23 08:00:00;;;;;;;182.15;101.92;;;;;;;10.03;43.88;100899.61;1666967;85;21252;-72
2022/03/23 08:02:29;;;;;;;187.07;107.32;;;;;;;10.16;43.29;100898.99;1659992;85;21013;-67
2022/03/23 08:05:03;;;;;;;180.72;105.12;;;;;;;10.29;43.14;100898.91;1660165;85;21496;-69
2022/03/23 08:07:45;;;;;;;163.82;95.40;;;;;;;10.45;43.07;100894.69;1648052;86;21072;-69
2022/03/23 08:10:12;;;;;;;186.00;107.37;;;;;;;10.64;42.69;100891.28;1652717;86;21107;-68
2022/03/23 08:12:42;;;;;;;174.82;102.92;;;;;;;10.82;42.26;100895.27;1666587;85;20909;-69
2022/03/23 08:15:09;;;;;;;184.28;105.87;;;;;;;10.97;41.90;100886.05;1659890;85;21472;-70
2022/03/23 08:17:38;;;;;;;154.97;93.22;;;;;;;11.13;41.34;100893.63;1658434;85;20973;-70
2022/03/23 08:22:57;;;;;;;174.93;100.22;;;;;;;11.47;40.20;100885.56;1656906;85;20937;-73
2022/03/23 08:25:25;;;;;;;153.23;91.82;;;;;;;11.62;39.79;100879.88;1634984;86;21865;-69
2022/03/23 08:27:54;;;;;;;118.20;69.27;;;;;;;11.78;40.12;100882.45;1656068;85;21047;-71
2022/03/23 08:30:24;;;;;;;116.75;64.25;;;;;;;11.97;38.69;100882.50;1663672;85;21080;-70
2022/03/23 08:32:50;;;;;;;97.12;55.67;;;;;;;12.12;37.75;100882.05;1667492;85;21056;-69
2022/03/23 08:35:19;;;;;;;104.65;59.60;;;;;;;12.24;37.69;100879.67;1654785;86;21643;-72
2022/03/23 08:37:48;;;;;;;73.33;44.35;;;;;;;12.36;37.91;100872.32;1658723;85;21660;-69
2022/03/23 08:40:18;;;;;;;77.35;45.12;;;;;;;12.50;37.54;100868.80;1658207;85;21008;-72
2022/03/23 08:42:46;;;;;;;83.78;45.28;;;;;;;12.69;37.03;100866.02;1657925;85;21479;-72
2022/03/23 08:45:16;;;;;;;82.08;45.33;;;;;;;12.87;36.63;100865.70;1666198;85;21024;-72
2022/03/23 08:47:44;;;;;;;69.72;39.00;;;;;;;12.98;35.69;100858.03;1661596;85;21126;-71
2022/03/23 08:50:13;;;;;;;72.78;41.77;;;;;;;13.07;36.41;100855.39;1663893;85;21051;-71
2022/03/23 08:52:41;;;;;;;74.75;39.33;;;;;;;13.21;36.51;100858.19;1658986;85;21071;-72
2022/03/23 08:55:10;;;;;;;77.30;40.92;;;;;;;13.33;36.04;100858.25;1667554;85;21073;-70
2022/03/23 08:57:37;;;;;;;94.17;50.20;;;;;;;13.42;36.10;100859.19;1653100;85;21037;-72
2022/03/23 09:00:05;;;;;;;90.03;51.25;;;;;;;13.55;36.11;100849.82;1653633;86;21020;-69
2022/03/23 09:02:34;;;;;;;82.53;45.38;;;;;;;13.61;34.63;100845.25;1658591;85;21106;-71
2022/03/23 09:05:01;;;;;;;87.25;47.67;;;;;;;13.62;33.61;100846.91;1660140;85;20964;-72
2022/03/23 09:07:33;;;;;;;87.60;48.25;;;;;;;13.69;34.43;100839.58;1652130;86;20995;-71
2022/03/23 09:10:03;;;;;;;80.55;46.58;;;;;;;13.81;34.76;100840.43;1657699;85;21716;-72
2022/03/23 09:12:32;;;;;;;107.05;57.58;;;;;;;13.96;34.80;100834.28;1659733;85;21073;-71
2022/03/23 09:15:30;;;;;;;99.75;56.88;;;;;;;14.12;34.63;100832.80;1657538;86;20976;-71
2022/03/23 09:18:01;;;;;;;111.08;62.58;;;;;;;14.30;34.82;100828.81;1658441;85;20920;-74
2022/03/23 09:20:29;;;;;;;112.30;59.77;;;;;;;14.40;33.25;100824.16;1656061;85;21475;-69
2022/03/23 09:22:58;;;;;;;110.83;62.45;;;;;;;14.41;33.13;100821.63;1658503;85;21019;-70
2022/03/23 09:25:27;;;;;;;88.58;48.42;;;;;;;14.44;32.57;100819.61;1660484;85;21478;-73
2022/03/23 09:27:54;;;;;;;74.75;40.92;;;;;;;14.45;33.01;100815.73;1662810;84;21789;-69
2022/03/23 09:30:24;;;;;;;82.95;46.23;;;;;;;14.48;32.32;100817.27;1665941;85;21032;-73
2022/03/23 09:32:52;;;;;;;39.30;19.25;;;;;;;14.55;32.84;100807.13;1664885;85;21052;-73
2022/03/23 09:35:22;;;;;;;33.70;17.90;;;;;;;14.72;32.53;100809.78;1660747;85;21128;-70
2022/03/23 09:38:03;;;;;;;59.25;35.40;;;;;;;14.87;31.60;100798.88;1666394;85;21514;-74
2022/03/23 09:40:31;;;;;;;74.53;43.00;;;;;;;14.96;32.27;100806.66;1659054;86;21145;-74
2022/03/23 09:43:00;;;;;;;72.20;39.75;;;;;;;15.08;31.84;100799.13;1663746;85;20957;-73
2022/03/23 09:48:05;;;;;;;32.70;14.85;;;;;;;15.23;31.65;100791.53;1665083;84;21050;-71
2022/03/23 09:50:33;;;;;;;44.55;25.37;;;;;;;15.30;31.50;100790.47;1680093;84;21584;-71
2022/03/23 09:53:29;;;;;;;74.50;45.10;;;;;;;15.37;31.49;100784.45;1680486;84;21019;-68
2022/03/23 09:56:04;;;;;;;84.47;49.95;;;;;;;15.42;31.12;100781.52;1670335;84;21234;-71
2022/03/23 09:58:32;;;;;;;82.70;48.13;;;;;;;15.43;31.24;100780.96;1668788;85;21063;-71
2022/03/23 10:01:01;;;;;;;71.35;40.55;;;;;;;15.39;31.07;100775.80;1678545;85;21060;-69
2022/03/23 10:04:19;;;;;;;62.17;34.75;;;;;;;15.40;30.73;100776.06;1677333;84;21151;-70
2022/03/23 10:07:06;;;;;;;47.13;26.80;;;;;;;15.42;30.54;100771.80;1650637;85;21277;-71
2022/03/23 10:10:21;;;;;;;47.70;26.73;;;;;;;15.43;30.76;100761.52;1667427;84;20967;-72
2022/03/23 10:13:33;;;;;;;43.78;23.45;;;;;;;15.55;30.70;100756.17;1680783;84;21001;-72
2022/03/23 10:16:33;;;;;;;47.62;26.27;;;;;;;15.63;30.69;100751.75;1661270;84;20971;-72
2022/03/23 10:19:00;;;;;;;47.65;23.50;;;;;;;15.76;30.59;100746.39;1671755;84;20951;-70
2022/03/23 10:21:37;;;;;;;44.63;26.15;;;;;;;15.87;30.41;100738.53;1666871;85;20980;-69
2022/03/23 10:24:17;;;;;;;40.40;21.20;;;;;;;15.90;30.14;100736.51;1669702;85;21528;-71
2022/03/23 10:26:47;;;;;;;65.62;34.13;;;;;;;15.93;30.46;100732.48;1670672;85;21020;-74
2022/03/23 10:29:23;;;;;;;54.58;30.92;;;;;;;15.95;29.74;100733.54;1685096;84;21119;-71
2022/03/23 10:32:08;;;;;;;52.48;28.73;;;;;;;15.84;29.97;100735.02;1670960;84;20922;-69
2022/03/23 10:34:41;;;;;;;43.92;25.15;;;;;;;15.89;30.36;100727.91;1672080;85;21075;-70
2022/03/23 10:37:09;;;;;;;42.83;25.90;;;;;;;16.04;30.26;100725.23;1651892;86;21504;-71
2022/03/23 10:39:36;;;;;;;46.08;22.90;;;;;;;16.10;30.09;100723.11;1619781;87;21470;-71
2022/03/23 10:42:09;;;;;;;34.70;19.42;;;;;;;16.08;29.32;100712.89;1616361;87;21036;-70
2022/03/23 10:44:36;;;;;;;30.90;19.92;;;;;;;16.03;29.40;100704.16;1627039;85;21545;-73
2022/03/23 10:47:07;;;;;;;47.93;27.95;;;;;;;15.98;29.38;100699.55;1620252;87;21097;-72
2022/03/23 10:49:38;;;;;;;48.95;25.10;;;;;;;15.98;29.79;100694.00;1651264;86;21103;-71
2022/03/23 10:52:14;;;;;;;39.42;22.20;;;;;;;16.00;29.46;100693.70;1661354;85;20968;-70
2022/03/23 10:55:00;;;;;;;43.70;23.95;;;;;;;16.07;29.77;100691.22;1624047;87;21119;-73
2022/03/23 10:58:00;;;;;;;56.28;28.47;;;;;;;16.17;29.37;100687.30;1677616;84;21012;-71
2022/03/23 11:00:38;;;;;;;51.58;30.80;;;;;;;16.24;29.97;100679.25;1676823;84;21170;-73
2022/03/23 11:03:10;;;;;;;68.07;33.67;;;;;;;16.46;30.42;100672.41;1669548;84;21005;-70
2022/03/23 11:05:41;;;;;;;64.03;35.73;;;;;;;16.65;29.86;100673.41;1672660;85;21091;-73
2022/03/23 11:08:24;;;;;;;69.12;40.03;;;;;;;16.65;29.27;100665.86;1674105;85;20873;-73
2022/03/23 11:16:37;;;;;;;78.10;45.00;;;;;;;16.65;28.94;100662.29;1636369;84;20993;-70
2022/03/23 11:19:23;;;;;;;98.90;53.63;;;;;;;16.58;29.18;100650.86;1676402;84;21037;-68
2022/03/23 11:22:06;;;;;;;91.45;50.33;;;;;;;16.58;29.44;100650.26;1676768;84;21568;-70
2022/03/23 11:24:38;;;;;;;89.77;51.57;;;;;;;16.59;29.71;100639.95;1660505;84;21000;-71
2022/03/23 11:27:12;;;;;;;90.25;51.80;;;;;;;16.62;29.40;100642.06;1666128;84;21151;-72
2022/03/23 11:29:43;;;;;;;99.45;56.63;;;;;;;16.62;29.09;100633.16;1652234;86;21013;-70
2022/03/23 11:32:17;;;;;;;110.83;59.80;;;;;;;16.61;29.53;100625.97;1614760;88;21658;-71
2022/03/23 11:34:50;;;;;;;117.40;61.15;;;;;;;16.70;29.25;100625.90;1659336;85;21079;-71
2022/03/23 11:37:23;;;;;;;99.47;55.58;;;;;;;16.62;29.23;100621.20;1652175;86;21405;-72
2022/03/23 11:39:51;;;;;;;95.90;54.03;;;;;;;16.63;29.73;100613.91;1626323;86;21101;-71
2022/03/23 11:42:19;;;;;;;89.42;51.23;;;;;;;16.74;30.01;100608.79;1619683;87;20974;-72
2022/03/23 11:44:46;;;;;;;86.45;50.78;;;;;;;16.88;29.86;100603.55;1663849;85;21044;-73
2022/03/23 11:47:30;;;;;;;87.67;48.63;;;;;;;16.97;29.52;100599.33;1679576;84;21581;-72
2022/03/23 11:50:16;;;;;;;89.25;46.95;;;;;;;17.01;29.76;100594.13;1676806;84;21446;-71